createdAt,value
2022-09-09T00:00:19.317Z,100560.03
2022-09-09T00:03:12.380Z,100564.50
2022-09-09T00:06:04.870Z,100555.03
2022-09-09T00:08:46.260Z,100545.16
2022-09-09T00:11:18.387Z,100556.06
2022-09-09T00:13:51.087Z,100550.88
2022-09-09T00:16:26.972Z,100544.94
2022-09-09T00:19:08.579Z,100545.97
2022-09-09T00:21:44.372Z,100544.69
2022-09-09T00:24:28.823Z,100551.50
2022-09-09T00:27:05.369Z,100546.84
2022-09-09T00:29:46.433Z,100552.72
2022-09-09T00:32:17.547Z,100564.44
2022-09-09T00:35:02.897Z,100560.22
2022-09-09T00:37:32.686Z,100558.22
2022-09-09T00:40:05.897Z,100537.53
2022-09-09T00:42:44.483Z,100544.63
2022-09-09T00:45:38.862Z,100548.59
2022-09-09T00:48:12.973Z,100542.63
2022-09-09T00:50:49.719Z,100542.66
2022-09-09T00:53:40.862Z,100539.97
2022-09-09T00:56:17.530Z,100542.44
2022-09-09T00:58:47.710Z,100538.00
2022-09-09T01:01:14.755Z,100539.53
2022-09-09T01:03:54.246Z,100539.91
2022-09-09T01:06:25.118Z,100517.69
2022-09-09T01:08:57.594Z,100538.84
2022-09-09T01:11:27.908Z,100522.38
2022-09-09T01:14:14.885Z,100528.00
2022-09-09T01:16:42.749Z,100539.47
2022-09-09T01:19:15.990Z,100542.16
2022-09-09T01:21:58.191Z,100539.69
2022-09-09T01:24:49.215Z,100536.41
2022-09-09T01:27:19.220Z,100530.91
2022-09-09T01:29:46.519Z,100528.94
2022-09-09T01:32:43.922Z,100529.28
2022-09-09T01:35:20.380Z,100527.16
2022-09-09T01:37:46.774Z,100530.91
2022-09-09T01:40:13.232Z,100517.44
2022-09-09T01:42:39.653Z,100506.31
2022-09-09T01:45:06.922Z,100517.81
2022-09-09T01:47:33.367Z,100513.91
2022-09-09T01:50:00.437Z,100514.75
2022-09-09T01:52:27.049Z,100502.81
2022-09-09T01:54:53.714Z,100503.41
2022-09-09T01:57:28.797Z,100497.53
2022-09-09T02:00:14.724Z,100514.06
2022-09-09T02:03:06.455Z,100510.06
2022-09-09T02:05:43.319Z,100507.84
2022-09-09T02:08:14.478Z,100502.81
2022-09-09T02:10:51.569Z,100498.81
2022-09-09T02:13:20.663Z,100501.84
2022-09-09T02:15:59.910Z,100497.72
2022-09-09T02:18:31.443Z,100498.53
2022-09-09T02:21:00.095Z,100498.78
2022-09-09T02:23:27.221Z,100503.09
2022-09-09T02:25:56.778Z,100495.13
2022-09-09T02:28:28.770Z,100500.75
2022-09-09T02:30:56.295Z,100496.44
2022-09-09T02:33:30.039Z,100492.44
2022-09-09T02:36:02.786Z,100489.72
2022-09-09T02:38:33.444Z,100485.25
2022-09-09T02:40:59.845Z,100482.66
2022-09-09T02:43:26.268Z,100483.81
2022-09-09T02:46:04.511Z,100480.25
2022-09-09T02:48:44.867Z,100485.63
2022-09-09T02:51:25.099Z,100477.41
2022-09-09T02:54:19.455Z,100478.47
2022-09-09T02:56:52.439Z,100469.81
2022-09-09T02:59:19.220Z,100479.88
2022-09-09T03:01:46.037Z,100484.16
2022-09-09T03:04:12.497Z,100477.94
2022-09-09T03:06:38.862Z,100478.00
2022-09-09T03:09:05.297Z,100481.31
2022-09-09T03:11:31.930Z,100480.03
2022-09-09T03:13:58.308Z,100473.03
2022-09-09T03:16:24.841Z,100472.88
2022-09-09T03:18:53.250Z,100468.75
2022-09-09T03:21:19.689Z,100462.22
2022-09-09T03:23:46.090Z,100449.75
2022-09-09T03:26:12.725Z,100464.31
2022-09-09T03:28:39.139Z,100464.06
2022-09-09T03:31:06.580Z,100456.25
2022-09-09T03:33:33.088Z,100454.94
2022-09-09T03:35:59.463Z,100454.72
2022-09-09T03:38:26.359Z,100458.22
2022-09-09T03:40:58.314Z,100448.78
2022-09-09T03:43:26.757Z,100444.09
2022-09-09T03:45:53.848Z,100433.69
2022-09-09T03:48:20.378Z,100444.94
2022-09-09T03:50:52.186Z,100442.41
2022-09-09T03:53:20.369Z,100443.00
2022-09-09T03:55:49.894Z,100446.97
2022-09-09T03:58:17.195Z,100450.94
2022-09-09T04:00:46.020Z,100446.59
2022-09-09T04:03:13.109Z,100450.53
2022-09-09T04:05:44.374Z,100442.13
2022-09-09T04:08:11.032Z,100436.97
2022-09-09T04:10:38.173Z,100440.47
2022-09-09T04:13:05.539Z,100435.78
2022-09-09T04:15:33.359Z,100430.88
2022-09-09T04:17:59.848Z,100431.91
2022-09-09T04:20:26.286Z,100432.34
2022-09-09T04:22:52.675Z,100432.00
2022-09-09T04:25:19.019Z,100416.56
2022-09-09T04:27:45.577Z,100427.69
2022-09-09T04:30:13.188Z,100412.84
2022-09-09T04:32:39.680Z,100419.94
2022-09-09T04:35:06.350Z,100422.03
2022-09-09T04:37:32.718Z,100423.31
2022-09-09T04:40:03.701Z,100422.94
2022-09-09T04:42:30.236Z,100422.72
2022-09-09T04:44:56.663Z,100424.81
2022-09-09T04:47:23.132Z,100418.38
2022-09-09T04:49:49.486Z,100409.94
2022-09-09T04:52:18.224Z,100413.22
2022-09-09T04:54:45.901Z,100415.50
2022-09-09T04:57:16.516Z,100407.06
2022-09-09T04:59:45.512Z,100409.06
2022-09-09T05:02:11.957Z,100408.09
2022-09-09T05:04:38.572Z,100405.31
2022-09-09T05:07:05.005Z,100406.59
2022-09-09T05:09:31.736Z,100404.06
2022-09-09T05:11:59.235Z,100406.97
2022-09-09T05:14:25.593Z,100409.28
2022-09-09T05:16:52.383Z,100409.88
2022-09-09T05:19:20.722Z,100408.69
2022-09-09T05:21:47.080Z,100408.81
2022-09-09T05:24:13.805Z,100399.50
2022-09-09T05:26:40.217Z,100403.38
2022-09-09T05:29:07.100Z,100401.97
2022-09-09T05:31:33.970Z,100396.97
2022-09-09T05:34:00.556Z,100399.78
2022-09-09T05:36:27.065Z,100396.03
2022-09-09T05:38:56.335Z,100403.50
2022-09-09T05:41:24.149Z,100385.63
2022-09-09T05:43:51.087Z,100400.59
2022-09-09T05:46:20.916Z,100387.53
2022-09-09T05:48:51.074Z,100399.91
2022-09-09T05:51:23.158Z,100390.56
2022-09-09T05:53:50.263Z,100403.69
2022-09-09T05:56:19.295Z,100410.00
2022-09-09T05:58:47.925Z,100409.28
2022-09-09T06:01:20.280Z,100409.84
2022-09-09T06:03:49.318Z,100421.91
2022-09-09T06:06:25.107Z,100422.72
2022-09-09T06:08:53.897Z,100405.06
2022-09-09T06:11:27.342Z,100420.72
2022-09-09T06:13:55.630Z,100419.81
2022-09-09T06:16:24.775Z,100420.78
2022-09-09T06:18:52.281Z,100424.97
2022-09-09T06:21:21.607Z,100424.38
2022-09-09T06:23:48.733Z,100424.16
2022-09-09T06:26:26.547Z,100423.13
2022-09-09T06:28:55.140Z,100426.41
2022-09-09T06:31:27.024Z,100419.38
2022-09-09T06:33:56.227Z,100422.19
2022-09-09T06:36:25.150Z,100421.50
2022-09-09T06:38:51.845Z,100409.44
2022-09-09T06:41:20.362Z,100407.69
2022-09-09T06:43:47.619Z,100416.25
2022-09-09T06:46:16.804Z,100415.53
2022-09-09T06:48:45.486Z,100407.34
2022-09-09T06:51:18.551Z,100410.63
2022-09-09T06:53:46.764Z,100409.09
2022-09-09T06:56:31.686Z,100408.16
2022-09-09T06:59:05.063Z,100413.41
2022-09-09T07:01:36.938Z,100418.31
2022-09-09T07:04:05.296Z,100408.59
2022-09-09T07:06:34.005Z,100408.72
2022-09-09T07:09:04.988Z,100414.44
2022-09-09T07:11:34.413Z,100412.91
2022-09-09T07:14:01.944Z,100414.91
2022-09-09T07:16:30.294Z,100405.06
2022-09-09T07:18:58.843Z,100398.97
2022-09-09T07:21:29.266Z,100410.72
2022-09-09T07:23:56.348Z,100404.84
2022-09-09T07:26:26.188Z,100415.13
2022-09-09T07:28:53.070Z,100407.06
2022-09-09T07:31:27.153Z,100407.75
2022-09-09T07:33:56.429Z,100394.97
2022-09-09T07:36:24.332Z,100410.53
2022-09-09T07:38:56.478Z,100407.25
2022-09-09T07:41:29.084Z,100405.84
2022-09-09T07:43:56.029Z,100412.97
2022-09-09T07:46:25.960Z,100354.16
2022-09-09T07:48:54.896Z,100407.59
2022-09-09T07:51:24.351Z,100401.38
2022-09-09T07:53:56.754Z,100405.59
2022-09-09T07:56:33.727Z,100413.66
2022-09-09T07:59:00.402Z,100408.28
2022-09-09T08:01:33.235Z,100409.81
2022-09-09T08:04:02.420Z,100412.00
2022-09-09T08:06:31.248Z,100416.59
2022-09-09T08:08:57.858Z,100407.34
2022-09-09T08:11:26.106Z,100406.53
2022-09-09T08:13:57.887Z,100412.50
2022-09-09T08:16:31.525Z,100382.69
2022-09-09T08:18:59.374Z,100402.88
2022-09-09T08:21:28.993Z,100389.78
2022-09-09T08:23:58.078Z,100408.97
2022-09-09T08:26:46.024Z,100407.66
2022-09-09T08:29:14.679Z,100404.72
2022-09-09T08:31:43.823Z,100400.97
2022-09-09T08:34:10.798Z,100398.38
2022-09-09T08:36:43.259Z,100401.50
2022-09-09T08:39:11.884Z,100399.09
2022-09-09T08:41:38.235Z,100408.34
2022-09-09T08:44:28.358Z,100400.03
2022-09-09T08:46:56.980Z,100405.66
2022-09-09T08:49:54.780Z,100381.81
2022-09-09T08:52:26.647Z,100419.72
2022-09-09T08:54:56.247Z,100416.19
2022-09-09T08:57:27.784Z,100371.34
2022-09-09T08:59:56.907Z,100412.91
2022-09-09T09:02:33.243Z,100410.38
2022-09-09T09:05:05.643Z,100424.88
2022-09-09T09:07:55.626Z,100402.53
2022-09-09T09:10:46.086Z,100417.34
2022-09-09T09:13:22.147Z,100410.47
2022-09-09T09:15:57.699Z,100418.16
2022-09-09T09:18:24.251Z,100412.22
2022-09-09T09:21:11.469Z,100409.59
2022-09-09T09:23:51.930Z,100415.19
2022-09-09T09:26:19.979Z,100424.19
2022-09-09T09:28:46.618Z,100434.13
2022-09-09T09:31:14.821Z,100436.38
2022-09-09T09:33:41.810Z,100437.09
2022-09-09T09:36:11.367Z,100439.13
2022-09-09T09:41:40.964Z,100413.13
2022-09-09T09:44:31.467Z,100434.38
2022-09-09T09:47:14.419Z,100434.03
2022-09-09T09:49:52.912Z,100436.84
2022-09-09T09:52:24.930Z,100430.16
2022-09-09T09:54:53.269Z,100430.72
2022-09-09T09:57:27.617Z,100428.56
2022-09-09T10:00:05.284Z,100437.09
2022-09-09T10:02:52.887Z,100421.97
2022-09-09T10:05:26.883Z,100426.16
2022-09-09T10:08:15.196Z,100429.44
2022-09-09T10:10:51.173Z,100424.16
2022-09-09T10:13:42.437Z,100428.59
2022-09-09T10:16:22.038Z,100428.00
2022-09-09T10:19:03.938Z,100403.97
2022-09-09T10:21:50.707Z,100418.47
2022-09-09T10:24:31.989Z,100417.88
2022-09-09T10:27:32.294Z,100422.63
2022-09-09T10:30:20.052Z,100429.75
2022-09-09T10:33:07.264Z,100393.34
2022-09-09T10:35:50.694Z,100424.00
2022-09-09T10:38:18.685Z,100425.56
2022-09-09T10:40:54.237Z,100432.81
2022-09-09T10:43:47.957Z,100434.31
2022-09-09T10:46:37.084Z,100432.56
2022-09-09T10:49:21.991Z,100417.13
2022-09-09T10:52:19.004Z,100424.38
2022-09-09T10:55:03.255Z,100424.63
2022-09-09T10:57:40.185Z,100418.44
2022-09-09T11:00:20.507Z,100402.56
2022-09-09T11:02:54.032Z,100410.66
2022-09-09T11:05:25.264Z,100387.72
2022-09-09T11:08:00.728Z,100417.94
2022-09-09T11:11:00.686Z,100411.66
2022-09-09T11:13:49.678Z,100405.84
2022-09-09T11:16:30.809Z,100385.09
2022-09-09T11:19:04.510Z,100400.03
2022-09-09T11:21:37.712Z,100387.13
2022-09-09T11:24:14.304Z,100384.69
2022-09-09T11:27:04.235Z,100398.88
2022-09-09T11:29:49.610Z,100408.16
2022-09-09T11:32:28.285Z,100403.91
2022-09-09T11:35:15.977Z,100381.28
2022-09-09T11:38:16.545Z,100403.09
2022-09-09T11:40:43.754Z,100410.75
2022-09-09T11:43:18.746Z,100390.47
2022-09-09T11:45:57.345Z,100400.97
2022-09-09T11:48:34.451Z,100399.00
2022-09-09T11:51:01.453Z,100401.19
2022-09-09T11:53:28.519Z,100397.25
2022-09-09T11:56:14.400Z,100408.28
2022-09-09T11:58:44.654Z,100398.56
2022-09-09T12:01:38.712Z,100415.91
2022-09-09T12:04:21.303Z,100411.44
2022-09-09T12:06:57.373Z,100421.22
2022-09-09T12:09:28.533Z,100423.31
2022-09-09T12:12:26.431Z,100419.00
2022-09-09T12:15:04.114Z,100417.88
2022-09-09T12:17:32.901Z,100423.13
2022-09-09T12:20:12.138Z,100398.84
2022-09-09T12:23:02.978Z,100423.97
2022-09-09T12:25:36.558Z,100423.03
2022-09-09T12:28:05.971Z,100425.88
2022-09-09T12:30:51.110Z,100412.25
2022-09-09T12:33:19.979Z,100416.31
2022-09-09T12:35:54.710Z,100411.81
2022-09-09T12:38:39.262Z,100419.16
2022-09-09T12:41:05.968Z,100419.66
2022-09-09T12:43:33.156Z,100411.81
2022-09-09T12:46:08.088Z,100426.19
2022-09-09T12:48:39.738Z,100432.16
2022-09-09T12:51:18.455Z,100415.88
2022-09-09T12:53:46.980Z,100426.19
2022-09-09T12:56:27.724Z,100433.47
2022-09-09T12:58:57.181Z,100429.38
2022-09-09T13:01:32.399Z,100438.44
2022-09-09T13:03:59.258Z,100428.97
2022-09-09T13:06:29.517Z,100435.22
2022-09-09T13:09:02.202Z,100425.84
2022-09-09T13:11:40.580Z,100417.47
2022-09-09T13:14:07.489Z,100425.91
2022-09-09T13:16:41.929Z,100415.09
2022-09-09T13:19:15.099Z,100425.13
2022-09-09T13:21:41.799Z,100424.63
2022-09-09T13:24:30.223Z,100419.81
2022-09-09T13:27:04.811Z,100423.06
2022-09-09T13:29:33.381Z,100414.97
2022-09-09T13:32:29.566Z,100425.63
2022-09-09T13:35:01.215Z,100428.34
2022-09-09T13:37:39.032Z,100436.25
2022-09-09T13:40:17.709Z,100431.16
2022-09-09T13:42:45.678Z,100431.75
2022-09-09T13:45:27.762Z,100416.16
2022-09-09T13:47:56.405Z,100438.16
2022-09-09T13:50:26.593Z,100428.91
2022-09-09T13:52:55.544Z,100431.38
2022-09-09T13:55:24.061Z,100410.41
2022-09-09T13:57:56.016Z,100423.19
2022-09-09T14:00:23.637Z,100427.53
2022-09-09T14:02:50.207Z,100426.16
2022-09-09T14:05:17.214Z,100426.09
2022-09-09T14:07:45.111Z,100433.31
2022-09-09T14:10:12.811Z,100430.78
2022-09-09T14:12:39.486Z,100439.97
2022-09-09T14:15:08.288Z,100439.41
2022-09-09T14:17:37.147Z,100441.34
2022-09-09T14:20:10.149Z,100434.78
2022-09-09T14:22:37.205Z,100443.16
2022-09-09T14:25:04.624Z,100451.75
2022-09-09T14:27:31.143Z,100450.56
2022-09-09T14:29:58.737Z,100463.34
2022-09-09T14:32:25.223Z,100467.16
2022-09-09T14:34:51.680Z,100462.69
2022-09-09T14:37:18.732Z,100471.91
2022-09-09T14:39:45.741Z,100466.44
2022-09-09T14:42:12.171Z,100467.19
2022-09-09T14:44:39.363Z,100473.34
2022-09-09T14:47:06.931Z,100464.75
2022-09-09T14:49:33.396Z,100472.69
2022-09-09T14:51:59.889Z,100483.56
2022-09-09T14:54:26.954Z,100472.19
2022-09-09T14:56:53.429Z,100479.69
2022-09-09T14:59:19.904Z,100483.22
2022-09-09T15:01:46.549Z,100486.50
2022-09-09T15:04:15.135Z,100479.69
2022-09-09T15:06:43.400Z,100490.03
2022-09-09T15:09:09.910Z,100495.34
2022-09-09T15:11:38.818Z,100513.66
2022-09-09T15:14:07.098Z,100497.13
2022-09-09T15:16:34.197Z,100488.22
2022-09-09T15:19:02.021Z,100478.75
2022-09-09T15:21:34.222Z,100491.06
2022-09-09T15:24:00.746Z,100480.91
2022-09-09T15:26:28.572Z,100483.09
2022-09-09T15:28:55.766Z,100488.88
2022-09-09T15:31:29.340Z,100481.81
2022-09-09T15:34:01.813Z,100490.72
2022-09-09T15:36:33.990Z,100486.50
2022-09-09T15:39:02.056Z,100491.31
2022-09-09T15:41:29.903Z,100489.53
2022-09-09T15:43:57.846Z,100475.88
2022-09-09T15:46:42.156Z,100472.06
2022-09-09T15:49:15.847Z,100486.38
2022-09-09T15:51:44.962Z,100453.72
2022-09-09T15:54:14.488Z,100475.78
2022-09-09T15:56:42.435Z,100472.63
2022-09-09T15:59:08.855Z,100475.75
2022-09-09T16:01:36.828Z,100471.06
2022-09-09T16:04:03.889Z,100477.13
2022-09-09T16:06:30.843Z,100478.47
2022-09-09T16:08:59.312Z,100490.38
2022-09-09T16:11:27.578Z,100484.28
2022-09-09T16:13:56.002Z,100485.19
2022-09-09T16:16:28.324Z,100483.88
2022-09-09T16:19:00.103Z,100479.28
2022-09-09T16:21:32.416Z,100474.78
2022-09-09T16:24:01.477Z,100478.56
2022-09-09T16:26:29.002Z,100467.19
2022-09-09T16:28:55.501Z,100480.69
2022-09-09T16:31:24.661Z,100479.78
2022-09-09T16:33:52.241Z,100490.06
2022-09-09T16:36:23.967Z,100489.03
2022-09-09T16:39:01.637Z,100491.81
2022-09-09T16:41:29.788Z,100489.84
2022-09-09T16:44:03.265Z,100486.66
2022-09-09T16:46:31.947Z,100494.44
2022-09-09T16:48:59.923Z,100502.34
2022-09-09T16:51:32.054Z,100502.59
2022-09-09T16:54:00.325Z,100509.13
2022-09-09T16:56:28.492Z,100492.41
2022-09-09T16:59:00.837Z,100489.31
2022-09-09T17:01:29.877Z,100510.91
2022-09-09T17:04:01.347Z,100503.53
2022-09-09T17:06:30.070Z,100508.44
2022-09-09T17:08:58.071Z,100509.50
2022-09-09T17:11:25.350Z,100512.41
2022-09-09T17:13:53.191Z,100507.50
2022-09-09T17:16:22.740Z,100513.22
2022-09-09T17:18:53.308Z,100512.06
2022-09-09T17:21:21.496Z,100504.09
2022-09-09T17:23:48.473Z,100523.44
2022-09-09T17:26:18.163Z,100522.75
2022-09-09T17:28:46.591Z,100540.47
2022-09-09T17:31:15.782Z,100542.41
2022-09-09T17:33:46.973Z,100539.63
2022-09-09T17:36:19.721Z,100541.16
2022-09-09T17:38:46.414Z,100538.72
2022-09-09T17:41:17.068Z,100524.44
2022-09-09T17:43:43.977Z,100539.31
2022-09-09T17:46:14.113Z,100539.31
2022-09-09T17:48:41.906Z,100541.69
2022-09-09T17:51:11.658Z,100539.22
2022-09-09T17:53:40.163Z,100536.69
2022-09-09T17:56:09.084Z,100538.81
2022-09-09T17:58:36.534Z,100543.47
2022-09-09T18:01:10.155Z,100508.59
2022-09-09T18:03:38.095Z,100551.22
2022-09-09T18:06:06.802Z,100561.75
2022-09-09T18:08:36.770Z,100569.03
2022-09-09T18:11:04.505Z,100561.75
2022-09-09T18:13:30.942Z,100570.31
2022-09-09T18:15:58.411Z,100576.69
2022-09-09T18:18:25.903Z,100572.50
2022-09-09T18:21:03.696Z,100580.91
2022-09-09T18:23:31.091Z,100579.78
2022-09-09T18:25:59.005Z,100581.53
2022-09-09T18:28:27.421Z,100578.25
2022-09-09T18:30:53.985Z,100570.06
2022-09-09T18:33:20.393Z,100582.59
2022-09-09T18:35:48.305Z,100576.03
2022-09-09T18:38:17.105Z,100576.78
2022-09-09T18:40:43.922Z,100580.38
2022-09-09T18:43:12.346Z,100582.47
2022-09-09T18:45:38.892Z,100581.78
2022-09-09T18:48:05.776Z,100574.97
2022-09-09T18:50:34.087Z,100574.28
2022-09-09T18:53:00.493Z,100588.34
2022-09-09T18:55:28.995Z,100591.88
2022-09-09T18:57:55.501Z,100596.69
2022-09-09T19:00:21.867Z,100593.75
2022-09-09T19:02:52.489Z,100591.53
2022-09-09T19:05:20.396Z,100602.78
2022-09-09T19:07:46.847Z,100614.59
2022-09-09T19:10:13.379Z,100603.94
2022-09-09T19:12:41.390Z,100601.44
2022-09-09T19:15:08.320Z,100608.97
2022-09-09T19:17:35.781Z,100605.81
2022-09-09T19:20:02.482Z,100616.69
2022-09-09T19:22:29.607Z,100616.69
2022-09-09T19:25:01.410Z,100616.69
2022-09-09T19:27:27.748Z,100615.88
2022-09-09T19:29:56.988Z,100604.03
2022-09-09T19:35:11.136Z,100612.22
2022-09-09T19:37:37.599Z,100618.44
2022-09-09T19:40:06.679Z,100628.66
2022-09-09T19:42:33.318Z,100634.50
2022-09-09T19:44:59.709Z,100637.22
2022-09-09T19:47:26.083Z,100629.38
2022-09-09T19:49:52.596Z,100631.81
2022-09-09T19:52:19.511Z,100638.63
2022-09-09T19:54:46.706Z,100636.38
2022-09-09T19:57:13.470Z,100646.13
2022-09-09T19:59:39.891Z,100635.59
2022-09-09T20:02:06.379Z,100642.00
2022-09-09T20:04:34.079Z,100651.41
2022-09-09T20:07:00.521Z,100642.16
2022-09-09T20:09:28.925Z,100648.00
2022-09-09T20:11:55.360Z,100646.94
2022-09-09T20:14:21.887Z,100655.25
2022-09-09T20:16:48.339Z,100656.69
2022-09-09T20:19:18.617Z,100654.00
2022-09-09T20:21:49.643Z,100661.25
2022-09-09T20:24:18.664Z,100656.56
2022-09-09T20:26:47.354Z,100646.03
2022-09-09T20:29:16.470Z,100648.72
2022-09-09T20:31:48.243Z,100657.84
2022-09-09T20:34:18.518Z,100653.19
2022-09-09T20:36:46.038Z,100659.63
2022-09-09T20:39:15.115Z,100660.06
2022-09-09T20:41:44.189Z,100665.69
2022-09-09T20:44:14.496Z,100649.06
2022-09-09T20:46:43.934Z,100652.13
2022-09-09T20:49:11.734Z,100659.13
2022-09-09T20:51:38.647Z,100655.88
2022-09-09T20:54:12.367Z,100652.00
2022-09-09T20:56:40.794Z,100657.25
2022-09-09T20:59:11.436Z,100644.50
2022-09-09T21:01:39.329Z,100649.41
2022-09-09T21:04:07.055Z,100655.88
2022-09-09T21:06:33.587Z,100654.31
2022-09-09T21:09:00.007Z,100651.88
2022-09-09T21:11:26.636Z,100646.72
2022-09-09T21:13:53.047Z,100649.41
2022-09-09T21:16:21.136Z,100652.94
2022-09-09T21:18:49.063Z,100650.91
2022-09-09T21:21:15.997Z,100660.41
2022-09-09T21:23:42.455Z,100662.28
2022-09-09T21:26:09.866Z,100659.59
2022-09-09T21:28:36.673Z,100652.56
2022-09-09T21:31:05.620Z,100657.38
2022-09-09T21:33:34.521Z,100667.06
2022-09-09T21:36:07.823Z,100665.44
2022-09-09T21:38:34.901Z,100655.94
2022-09-09T21:41:06.102Z,100663.59
2022-09-09T21:43:33.507Z,100667.66
2022-09-09T21:46:00.070Z,100668.97
2022-09-09T21:48:27.654Z,100682.91
2022-09-09T21:50:54.806Z,100675.03
2022-09-09T21:53:21.344Z,100668.84
2022-09-09T21:55:48.933Z,100667.78
2022-09-09T21:58:18.752Z,100683.25
2022-09-09T22:00:47.127Z,100680.44
2022-09-09T22:03:15.396Z,100689.56
2022-09-09T22:05:43.791Z,100693.47
2022-09-09T22:08:11.418Z,100691.31
2022-09-09T22:10:39.746Z,100687.59
2022-09-09T22:13:07.233Z,100694.72
2022-09-09T22:15:34.595Z,100699.94
2022-09-09T22:18:04.609Z,100710.41
2022-09-09T22:20:33.374Z,100713.56
2022-09-09T22:23:01.033Z,100697.84
2022-09-09T22:25:28.606Z,100699.47
2022-09-09T22:27:55.973Z,100686.34
2022-09-09T22:30:22.567Z,100687.28
2022-09-09T22:32:48.940Z,100686.09
2022-09-09T22:35:15.310Z,100683.50
2022-09-09T22:37:41.807Z,100676.09
2022-09-09T22:40:09.727Z,100679.25
2022-09-09T22:42:36.491Z,100683.00
2022-09-09T22:45:03.060Z,100680.44
2022-09-09T22:47:29.439Z,100679.97
2022-09-09T22:49:56.975Z,100684.88
2022-09-09T22:52:24.609Z,100683.75
2022-09-09T22:54:51.965Z,100685.97
2022-09-09T22:57:18.328Z,100682.69
2022-09-09T22:59:45.168Z,100679.53
2022-09-09T23:02:13.181Z,100684.84
2022-09-09T23:04:39.548Z,100670.56
2022-09-09T23:07:07.972Z,100678.41
2022-09-09T23:09:34.689Z,100673.84
2022-09-09T23:12:01.831Z,100672.78
2022-09-09T23:14:28.239Z,100664.94
2022-09-09T23:16:55.516Z,100657.09
2022-09-09T23:19:22.051Z,100653.94
2022-09-09T23:21:48.449Z,100647.94
2022-09-09T23:24:16.646Z,100652.44
2022-09-09T23:26:45.561Z,100647.31
2022-09-09T23:29:14.280Z,100649.38
2022-09-09T23:31:43.362Z,100650.16
2022-09-09T23:34:10.533Z,100654.56
2022-09-09T23:36:37.694Z,100650.03
2022-09-09T23:39:05.832Z,100658.47
2022-09-09T23:41:35.298Z,100661.41
2022-09-09T23:44:02.543Z,100661.66
2022-09-09T23:46:30.768Z,100639.84
2022-09-09T23:48:58.913Z,100634.72
2022-09-09T23:51:28.856Z,100614.31
2022-09-09T23:53:57.171Z,100649.16
2022-09-09T23:56:26.215Z,100649.59
2022-09-09T23:58:53.886Z,100653.50
